Terminal Aerodrome Forecast
Issued by NWS

Home | Current Version | Previous Version | Text Only | Print | Product List | Glossary On
Versions: 1 2 3 4 5 6 7 8 9 10 11 12 13 14 15
822
FTUS43 KGRB 272150 AAA
TAFMTW
TAF AMD
KMTW 272150Z 2722/2818 26013G23KT P6SM VCSH SCT020 OVC035
      TEMPO 2722/2802 BKN020
     FM280200 25009KT P6SM BKN028
     FM280900 24008KT P6SM SCT030 SCT120=

USA.gov is the U.S. government's official web portal to all federal, state and local government web resources and services.